Time;durP1;ratioP1;P1;durP2;ratioP2;P2;SDS_P1;SDS_P2;PMS_P1;PMS_P2;Temp;Humidity;BMP_temperature;BMP_pressure;BME280_temperature;BME280_humidity;BME280_pressure;Samples;Min_cycle;Max_cycle;Signal;HPM_P1;HPM_P2
2023/06/20 00:01:54;;;;;;;12.90;10.65;;;22.20;45.00;;;;;;5000576;28;114911;-83
2023/06/20 00:04:22;;;;;;;10.95;9.65;;;22.20;45.60;;;;;;4965087;28;114240;-83
2023/06/20 00:06:49;;;;;;;12.60;10.32;;;22.20;45.50;;;;;;4965328;28;114877;-83
2023/06/20 00:09:16;;;;;;;10.75;9.65;;;22.20;45.30;;;;;;4978599;28;119094;-83
2023/06/20 00:11:43;;;;;;;11.02;9.25;;;22.20;45.00;;;;;;4984180;28;114812;-83
2023/06/20 00:14:12;;;;;;;11.30;10.13;;;22.10;45.80;;;;;;4986149;28;116675;-82
2023/06/20 00:16:39;;;;;;;11.80;10.13;;;22.20;45.40;;;;;;4986496;28;114535;-82
2023/06/20 00:19:08;;;;;;;11.45;9.63;;;22.20;45.70;;;;;;5000393;28;115202;-83
2023/06/20 00:21:35;;;;;;;11.77;10.05;;;22.20;46.00;;;;;;4983239;28;117973;-82
2023/06/20 00:24:02;;;;;;;12.40;10.02;;;22.20;44.70;;;;;;4985382;28;114552;-82
2023/06/20 00:26:30;;;;;;;12.13;9.82;;;22.10;45.00;;;;;;4985888;28;114308;-82
2023/06/20 00:28:57;;;;;;;10.88;9.77;;;22.10;44.70;;;;;;4983691;28;115016;-82
2023/06/20 00:31:25;;;;;;;11.07;9.27;;;22.00;45.70;;;;;;4984731;28;115217;-82
2023/06/20 00:33:55;;;;;;;10.02;9.02;;;22.00;45.60;;;;;;4984822;28;114444;-83
2023/06/20 00:36:25;;;;;;;11.05;9.50;;;22.10;45.00;;;;;;4984955;28;114266;-82
2023/06/20 00:38:55;;;;;;;10.98;9.88;;;22.10;44.90;;;;;;4960382;28;116111;-83
2023/06/20 00:41:23;;;;;;;10.38;9.35;;;22.10;44.70;;;;;;4964338;28;115445;-82
2023/06/20 00:43:50;;;;;;;11.10;9.90;;;22.00;44.60;;;;;;4985100;28;114271;-82
2023/06/20 00:46:19;;;;;;;11.05;10.05;;;21.90;45.10;;;;;;4985480;28;114445;-82
2023/06/20 00:48:47;;;;;;;11.68;9.60;;;21.90;44.70;;;;;;4999653;28;115501;-82
2023/06/20 00:51:14;;;;;;;10.60;9.48;;;21.90;44.20;;;;;;4984173;28;114394;-82
2023/06/20 00:53:43;;;;;;;11.10;9.18;;;21.80;45.30;;;;;;5000573;28;114266;-83
2023/06/20 00:56:11;;;;;;;11.30;9.40;;;21.70;45.40;;;;;;4983527;28;114600;-82
2023/06/20 00:58:38;;;;;;;10.70;9.70;;;21.80;45.50;;;;;;5000165;28;118181;-83
2023/06/20 01:01:06;;;;;;;10.13;9.13;;;21.80;45.90;;;;;;4984369;28;114628;-82
2023/06/20 01:03:36;;;;;;;10.93;9.77;;;21.80;46.30;;;;;;4985703;28;114388;-83
2023/06/20 01:06:35;;;;;;;10.70;9.60;;;21.80;45.70;;;;;;4984599;28;114437;-83
2023/06/20 01:09:23;;;;;;;10.85;9.13;;;21.80;45.20;;;;;;4982898;28;115506;-83
2023/06/20 01:11:54;;;;;;;10.30;9.30;;;21.80;46.40;;;;;;4980483;28;114466;-82
2023/06/20 01:14:43;;;;;;;11.48;9.93;;;21.70;46.10;;;;;;4983541;28;114387;-83
2023/06/20 01:17:19;;;;;;;10.90;9.75;;;21.70;45.10;;;;;;4983996;28;115367;-82
2023/06/20 01:20:05;;;;;;;9.90;8.90;;;21.60;45.10;;;;;;4978203;28;115155;-83
2023/06/20 01:22:49;;;;;;;10.02;8.90;;;21.60;46.40;;;;;;4978273;28;114641;-83
2023/06/20 01:25:31;;;;;;;10.75;9.68;;;21.60;46.00;;;;;;4980308;28;119189;-82
2023/06/20 01:28:17;;;;;;;10.10;9.10;;;21.60;45.30;;;;;;4963904;28;114652;-83
2023/06/20 01:30:48;;;;;;;10.38;9.27;;;21.60;46.40;;;;;;4962485;28;114895;-83
2023/06/20 01:33:16;;;;;;;10.75;9.70;;;21.60;46.90;;;;;;4979364;28;114639;-82
2023/06/20 01:35:43;;;;;;;10.35;9.27;;;21.70;46.00;;;;;;4980031;28;114571;-82
2023/06/20 01:38:11;;;;;;;12.98;10.18;;;21.70;45.50;;;;;;4980122;28;114433;-83
2023/06/20 01:40:47;;;;;;;9.90;8.90;;;21.70;45.70;;;;;;4962046;28;117365;-82
2023/06/20 01:43:14;;;;;;;11.45;9.80;;;21.70;46.30;;;;;;4963617;28;114824;-82
2023/06/20 01:45:41;;;;;;;11.15;9.02;;;21.80;45.50;;;;;;4979713;28;114420;-82
2023/06/20 01:48:08;;;;;;;12.75;9.98;;;21.80;46.70;;;;;;4963647;28;114630;-82
2023/06/20 01:50:35;;;;;;;11.30;9.43;;;21.80;45.00;;;;;;4979132;28;114857;-82
2023/06/20 01:53:03;;;;;;;10.43;9.20;;;21.80;45.80;;;;;;4962704;28;116044;-83
2023/06/20 01:55:31;;;;;;;9.85;8.85;;;21.80;45.80;;;;;;4963276;28;114471;-82
2023/06/20 01:57:59;;;;;;;10.95;9.75;;;21.80;45.80;;;;;;4963843;28;114681;-83
2023/06/20 02:00:29;;;;;;;10.95;9.32;;;21.80;45.10;;;;;;4978418;28;114931;-83
2023/06/20 02:02:57;;;;;;;10.10;9.10;;;21.80;45.50;;;;;;4981924;28;114638;-82
2023/06/20 02:05:26;;;;;;;10.27;9.30;;;21.70;46.00;;;;;;4966381;28;114554;-83
2023/06/20 02:07:55;;;;;;;10.40;9.25;;;21.70;45.00;;;;;;4966637;28;114438;-82
2023/06/20 02:10:22;;;;;;;10.80;9.70;;;21.70;45.20;;;;;;4965850;28;120208;-82
2023/06/20 02:12:51;;;;;;;10.85;9.27;;;21.70;45.40;;;;;;4965865;28;114677;-82
2023/06/20 02:15:18;;;;;;;10.05;9.05;;;21.50;44.70;;;;;;4966549;28;114877;-82
2023/06/20 02:17:46;;;;;;;12.95;9.50;;;21.40;46.60;;;;;;4968555;28;114735;-80
2023/06/20 02:20:13;;;;;;;11.38;8.80;;;21.40;46.90;;;;;;5001994;28;114872;-81
2023/06/20 02:22:45;;;;;;;10.85;9.48;;;21.40;46.40;;;;;;4985526;28;115159;-81
2023/06/20 02:25:19;;;;;;;10.57;9.57;;;21.50;46.80;;;;;;4964348;28;114509;-83
2023/06/20 02:27:47;;;;;;;11.70;9.80;;;21.60;46.10;;;;;;4966349;28;114428;-83
2023/06/20 02:30:18;;;;;;;10.23;9.23;;;21.50;45.70;;;;;;4965031;28;115043;-82
2023/06/20 02:32:48;;;;;;;10.35;9.32;;;21.50;46.50;;;;;;4982656;28;114535;-83
2023/06/20 02:35:16;;;;;;;10.38;8.73;;;21.60;46.20;;;;;;4966948;28;114344;-82
2023/06/20 02:37:46;;;;;;;9.98;8.98;;;21.60;46.60;;;;;;4959111;28;114350;-83
2023/06/20 02:40:13;;;;;;;10.77;9.68;;;21.70;46.70;;;;;;4982718;28;118037;-83
2023/06/20 02:42:40;;;;;;;11.80;10.60;;;21.70;46.10;;;;;;4968552;28;114990;-83
2023/06/20 02:45:12;;;;;;;11.52;9.68;;;21.70;46.30;;;;;;4970584;28;114213;-83
2023/06/20 02:47:57;;;;;;;11.13;9.85;;;21.80;46.30;;;;;;4982558;28;114158;-83
2023/06/20 02:50:41;;;;;;;10.65;9.55;;;21.80;46.40;;;;;;4978176;28;115547;-83
2023/06/20 02:53:37;;;;;;;12.15;9.73;;;21.80;46.00;;;;;;4968488;28;116405;-82
2023/06/20 02:56:08;;;;;;;10.68;9.52;;;21.90;44.80;;;;;;4984391;28;114318;-79
2023/06/20 02:58:37;;;;;;;10.15;9.05;;;21.80;45.10;;;;;;4985757;28;114373;-81
2023/06/20 03:01:05;;;;;;;10.05;9.05;;;21.80;46.20;;;;;;5001203;28;114995;-80
2023/06/20 03:03:36;;;;;;;10.02;9.02;;;21.80;45.20;;;;;;4951975;28;118066;-83
2023/06/20 03:06:06;;;;;;;12.27;10.80;;;21.80;46.00;;;;;;4985548;28;114379;-82
2023/06/20 03:08:33;;;;;;;11.05;9.95;;;21.90;44.60;;;;;;4985464;28;114419;-83
2023/06/20 03:11:00;;;;;;;9.60;8.70;;;21.80;44.60;;;;;;5000906;28;114948;-82
2023/06/20 03:13:27;;;;;;;9.68;8.68;;;21.80;45.90;;;;;;4984374;28;114673;-81
2023/06/20 03:15:55;;;;;;;10.25;9.25;;;21.90;45.60;;;;;;4985278;28;114190;-81
2023/06/20 03:18:24;;;;;;;13.45;9.35;;;22.10;45.20;;;;;;4984805;28;114217;-81
2023/06/20 03:20:52;;;;;;;11.38;10.20;;;22.30;45.00;;;;;;4955114;28;114975;-80
2023/06/20 03:23:24;;;;;;;11.48;9.55;;;22.50;44.10;;;;;;4963821;28;114657;-80
2023/06/20 03:25:52;;;;;;;10.88;9.13;;;22.80;43.90;;;;;;4965125;28;114278;-83
2023/06/20 03:28:19;;;;;;;9.77;7.88;;;22.90;44.00;;;;;;4964434;28;114401;-81
2023/06/20 03:30:51;;;;;;;14.38;10.55;;;23.20;43.60;;;;;;4963616;28;114853;-83
2023/06/20 03:33:21;;;;;;;9.90;8.57;;;23.30;42.60;;;;;;4947029;28;115428;-84
2023/06/20 03:35:48;;;;;;;13.57;10.80;;;23.40;42.90;;;;;;4965574;28;114514;-81
2023/06/20 03:38:16;;;;;;;11.32;9.35;;;23.60;42.20;;;;;;4948570;28;114280;-80
2023/06/20 03:40:44;;;;;;;12.00;9.95;;;23.80;42.20;;;;;;4963479;28;115070;-81
2023/06/20 03:43:12;;;;;;;9.75;8.77;;;23.80;41.20;;;;;;4963175;28;114656;-80
2023/06/20 03:45:39;;;;;;;10.50;9.35;;;24.00;41.70;;;;;;4965057;28;114270;-81
2023/06/20 03:48:06;;;;;;;13.35;9.65;;;24.10;40.80;;;;;;4964509;28;114378;-82
2023/06/20 03:50:34;;;;;;;9.68;8.68;;;24.20;40.10;;;;;;4964505;28;116115;-82
2023/06/20 03:53:03;;;;;;;9.70;8.70;;;24.20;40.50;;;;;;4982987;28;114544;-81
2023/06/20 03:55:33;;;;;;;9.50;8.47;;;24.30;40.60;;;;;;4940875;28;1234068;-82
2023/06/20 03:58:00;;;;;;;9.75;8.80;;;24.30;40.80;;;;;;4986525;28;114171;-83
2023/06/20 04:00:28;;;;;;;10.35;9.35;;;24.40;40.20;;;;;;4984016;28;115100;-83
2023/06/20 04:02:55;;;;;;;11.02;8.30;;;24.40;39.40;;;;;;4978210;28;114977;-83
2023/06/20 04:05:27;;;;;;;15.15;8.85;;;24.50;39.80;;;;;;4949442;28;114422;-84
2023/06/20 04:07:55;;;;;;;24.55;9.00;;;24.50;40.10;;;;;;4965080;28;114181;-84
2023/06/20 04:10:22;;;;;;;12.85;9.18;;;24.60;39.90;;;;;;4962590;28;115207;-83
2023/06/20 04:12:52;;;;;;;12.65;9.18;;;24.60;38.90;;;;;;4964147;28;114683;-83
2023/06/20 04:15:20;;;;;;;12.80;8.68;;;24.60;39.00;;;;;;4965253;28;114374;-83
2023/06/20 04:17:47;;;;;;;9.40;8.38;;;24.60;39.60;;;;;;4964961;28;114594;-83
2023/06/20 04:20:14;;;;;;;9.60;7.93;;;24.60;38.80;;;;;;4964175;28;114988;-83
2023/06/20 04:22:45;;;;;;;11.00;8.35;;;24.60;38.90;;;;;;4963588;28;115761;-81
2023/06/20 04:25:13;;;;;;;11.07;8.05;;;24.60;38.80;;;;;;4963700;28;114218;-82
2023/06/20 04:27:44;;;;;;;10.70;8.65;;;24.60;39.00;;;;;;4978458;28;119503;-82
2023/06/20 04:30:11;;;;;;;9.80;8.80;;;24.60;38.90;;;;;;4983527;28;115530;-82
2023/06/20 04:32:41;;;;;;;11.27;9.10;;;24.70;38.80;;;;;;4983613;28;114941;-82
2023/06/20 04:35:10;;;;;;;9.13;7.90;;;24.80;39.10;;;;;;4984342;28;114164;-82
2023/06/20 04:37:39;;;;;;;8.68;7.82;;;24.80;38.80;;;;;;4985238;28;114441;-82
2023/06/20 04:40:11;;;;;;;10.75;8.30;;;24.80;38.70;;;;;;4985397;28;114370;-82
2023/06/20 04:42:38;;;;;;;9.00;8.10;;;24.80;38.40;;;;;;4995023;28;114533;-81
2023/06/20 04:45:08;;;;;;;10.25;8.13;;;24.80;38.50;;;;;;4985424;28;114668;-82
2023/06/20 04:47:36;;;;;;;13.20;8.05;;;24.90;38.50;;;;;;4984186;28;116581;-82
2023/06/20 04:50:03;;;;;;;9.77;8.77;;;24.90;38.60;;;;;;4984624;28;114981;-81
2023/06/20 04:52:31;;;;;;;8.98;7.68;;;25.00;38.20;;;;;;4984889;28;115184;-82
2023/06/20 04:55:02;;;;;;;9.90;8.18;;;25.00;38.20;;;;;;4985277;28;114292;-82
2023/06/20 04:57:32;;;;;;;10.27;7.77;;;25.10;38.30;;;;;;4982692;28;118288;-83
2023/06/20 05:00:00;;;;;;;11.07;8.40;;;25.10;38.30;;;;;;4978152;28;115322;-81
2023/06/20 05:02:28;;;;;;;10.73;7.97;;;25.20;38.20;;;;;;4947284;28;114653;-82
2023/06/20 05:04:55;;;;;;;8.55;7.68;;;25.20;38.20;;;;;;4963850;28;115586;-82
2023/06/20 05:07:23;;;;;;;9.15;7.50;;;25.20;38.40;;;;;;4964183;28;114346;-81
2023/06/20 05:09:52;;;;;;;9.25;8.05;;;25.30;38.40;;;;;;4963605;28;114918;-82
2023/06/20 05:12:21;;;;;;;9.55;8.13;;;25.30;38.10;;;;;;4964928;28;114662;-81
2023/06/20 05:14:48;;;;;;;10.73;7.80;;;25.40;38.20;;;;;;4965381;28;114484;-81
2023/06/20 05:17:15;;;;;;;9.63;8.27;;;25.50;37.60;;;;;;4964667;28;114199;-81
2023/06/20 05:19:43;;;;;;;10.30;7.82;;;25.50;37.80;;;;;;4963383;28;114904;-82
2023/06/20 05:22:10;;;;;;;8.82;7.85;;;25.60;37.80;;;;;;4962905;28;115078;-80
2023/06/20 05:24:37;;;;;;;8.93;8.02;;;25.60;37.60;;;;;;4956633;28;114363;-80
2023/06/20 05:27:05;;;;;;;8.55;7.75;;;25.70;37.50;;;;;;4979332;28;119417;-80
2023/06/20 05:29:32;;;;;;;10.23;7.70;;;25.90;37.50;;;;;;4999502;28;114834;-80
2023/06/20 05:32:06;;;;;;;10.25;7.88;;;25.90;37.40;;;;;;4981357;28;116086;-83
2023/06/20 05:34:38;;;;;;;41.58;9.90;;;26.00;37.20;;;;;;4971965;28;114425;-82
2023/06/20 05:37:05;;;;;;;8.68;7.10;;;26.20;37.00;;;;;;4962983;28;114298;-82
2023/06/20 05:39:36;;;;;;;10.75;7.78;;;26.30;36.60;;;;;;4963001;28;115408;-81
2023/06/20 05:42:04;;;;;;;7.97;7.22;;;26.40;36.80;;;;;;4964757;28;114852;-83
2023/06/20 05:44:31;;;;;;;13.13;7.93;;;26.50;36.60;;;;;;4964845;28;114437;-83
2023/06/20 05:46:59;;;;;;;9.85;7.53;;;26.60;36.50;;;;;;4964481;28;114290;-82
2023/06/20 05:49:27;;;;;;;31.77;9.48;;;26.70;36.30;;;;;;4962499;28;114802;-79
2023/06/20 05:51:54;;;;;;;11.23;7.80;;;26.80;36.60;;;;;;4979126;28;116856;-79
2023/06/20 05:54:22;;;;;;;9.15;7.55;;;27.00;36.10;;;;;;4987046;28;114806;-78
2023/06/20 05:56:50;;;;;;;22.30;8.35;;;27.10;36.00;;;;;;4964203;28;114264;-79
2023/06/20 05:59:17;;;;;;;10.38;7.60;;;27.20;35.80;;;;;;4978978;28;115116;-78
2023/06/20 06:01:45;;;;;;;8.13;7.07;;;27.30;35.80;;;;;;4979700;28;115162;-78
2023/06/20 06:04:12;;;;;;;7.70;6.90;;;27.30;35.70;;;;;;4979980;28;116817;-79
2023/06/20 06:06:40;;;;;;;9.75;7.78;;;27.40;35.50;;;;;;4964551;28;114212;-78
2023/06/20 06:09:07;;;;;;;8.95;8.05;;;27.50;35.50;;;;;;4962219;28;117476;-78
2023/06/20 06:11:36;;;;;;;8.57;7.78;;;27.60;35.20;;;;;;4987286;28;117457;-77
2023/06/20 06:14:03;;;;;;;9.43;7.50;;;27.70;35.10;;;;;;4983876;28;114214;-79
2023/06/20 06:16:30;;;;;;;8.80;7.90;;;27.80;35.00;;;;;;4984409;28;114365;-78
2023/06/20 06:19:00;;;;;;;11.65;9.88;;;27.90;35.10;;;;;;4983323;28;116487;-78
2023/06/20 06:21:27;;;;;;;8.10;7.22;;;28.00;34.90;;;;;;4988253;28;114998;-78
2023/06/20 06:23:54;;;;;;;10.00;7.95;;;28.10;34.80;;;;;;4962918;28;114254;-78
2023/06/20 06:26:22;;;;;;;8.82;7.88;;;28.20;34.60;;;;;;4964759;28;114734;-78
2023/06/20 06:28:49;;;;;;;11.73;7.68;;;28.30;34.50;;;;;;4978379;28;117165;-79
2023/06/20 06:31:23;;;;;;;8.40;7.57;;;28.40;34.70;;;;;;4980772;28;117536;-80
2023/06/20 06:33:51;;;;;;;;;;;28.40;34.90;;;;;;4963356;28;114385;-77
2023/06/20 06:36:18;;;;;;;8.63;7.13;;;28.50;35.30;;;;;;4979752;28;114736;-79
2023/06/20 06:38:49;;;;;;;11.52;8.40;;;28.60;34.60;;;;;;4984863;28;116289;-77
2023/06/20 06:41:19;;;;;;;8.35;7.03;;;28.70;34.50;;;;;;4984895;28;114883;-78
2023/06/20 06:43:50;;;;;;;12.70;8.25;;;28.80;34.40;;;;;;4963376;28;114649;-77
2023/06/20 06:46:17;;;;;;;9.57;7.32;;;29.00;34.00;;;;;;4962681;28;114286;-78
2023/06/20 06:48:45;;;;;;;8.95;7.45;;;29.00;33.60;;;;;;4965866;28;114970;-79
2023/06/20 06:51:12;;;;;;;7.65;6.78;;;29.00;33.50;;;;;;4969792;28;117643;-78
2023/06/20 06:53:39;;;;;;;8.63;7.72;;;29.10;34.00;;;;;;4981196;28;114149;-79
2023/06/20 06:56:06;;;;;;;9.18;7.63;;;29.10;33.60;;;;;;4990469;28;116171;-78
2023/06/20 06:58:33;;;;;;;8.10;7.30;;;29.10;33.60;;;;;;4974357;28;114986;-79
2023/06/20 07:01:00;;;;;;;8.30;7.13;;;29.20;33.50;;;;;;4986903;28;115985;-78
2023/06/20 07:03:28;;;;;;;7.80;6.93;;;29.30;33.60;;;;;;4952388;28;114189;-78
2023/06/20 07:05:56;;;;;;;8.48;7.10;;;29.30;33.10;;;;;;4967269;28;115680;-78
2023/06/20 07:08:23;;;;;;;13.40;7.30;;;29.30;33.30;;;;;;4965637;28;115412;-78
2023/06/20 07:10:51;;;;;;;10.73;8.05;;;29.30;33.50;;;;;;4981339;28;114722;-79
2023/06/20 07:13:18;;;;;;;9.07;7.72;;;29.40;33.30;;;;;;4967284;28;114261;-79
2023/06/20 07:15:46;;;;;;;8.45;7.30;;;29.50;33.30;;;;;;4965020;28;114701;-80
2023/06/20 07:18:13;;;;;;;8.18;6.93;;;29.50;33.00;;;;;;4981424;28;115060;-79
2023/06/20 07:20:40;;;;;;;10.38;7.60;;;29.60;32.90;;;;;;4966719;28;114665;-79
2023/06/20 07:23:08;;;;;;;8.20;6.97;;;29.70;32.90;;;;;;4969110;28;114662;-77
2023/06/20 07:25:36;;;;;;;9.82;7.82;;;29.80;32.80;;;;;;4981364;28;114343;-76
2023/06/20 07:28:04;;;;;;;8.32;6.95;;;29.80;32.90;;;;;;4967358;28;114951;-77
2023/06/20 07:30:32;;;;;;;8.00;7.20;;;29.80;33.10;;;;;;4967230;28;114740;-77
2023/06/20 07:32:59;;;;;;;9.02;7.45;;;29.80;32.30;;;;;;4965996;28;114451;-78
2023/06/20 07:35:27;;;;;;;8.27;7.43;;;29.90;32.40;;;;;;4965925;28;114585;-78
2023/06/20 07:37:55;;;;;;;28.98;8.43;;;29.80;32.10;;;;;;4964669;28;114982;-78
2023/06/20 07:40:23;;;;;;;10.10;7.40;;;29.90;32.80;;;;;;4980914;28;115358;-78
2023/06/20 07:42:50;;;;;;;8.18;7.10;;;29.90;31.90;;;;;;4965177;28;114674;-78
2023/06/20 07:45:17;;;;;;;8.15;7.35;;;30.10;31.40;;;;;;4983538;28;114398;-78
2023/06/20 07:47:44;;;;;;;8.52;7.13;;;30.10;30.90;;;;;;4985270;28;115514;-78
2023/06/20 07:50:13;;;;;;;8.00;7.18;;;30.10;30.50;;;;;;4968320;28;116483;-78
2023/06/20 07:52:40;;;;;;;11.13;7.55;;;30.20;30.90;;;;;;4947807;28;114736;-78
2023/06/20 07:55:08;;;;;;;10.23;8.00;;;30.30;30.60;;;;;;4968144;28;114806;-77
2023/06/20 07:57:56;;;;;;;9.07;7.80;;;30.30;30.60;;;;;;4964041;28;115531;-77
2023/06/20 08:00:25;;;;;;;8.52;7.63;;;30.40;29.90;;;;;;4979747;28;114604;-78
2023/06/20 08:02:52;;;;;;;10.85;8.15;;;30.40;30.10;;;;;;4981927;28;114621;-78
2023/06/20 08:05:20;;;;;;;10.02;7.95;;;30.40;30.50;;;;;;4987244;28;114439;-78
2023/06/20 08:07:47;;;;;;;12.07;8.15;;;30.40;30.30;;;;;;4964971;28;114887;-78
2023/06/20 08:10:17;;;;;;;8.80;7.90;;;30.40;30.70;;;;;;4963640;28;116541;-78
2023/06/20 08:12:45;;;;;;;8.60;7.72;;;30.40;30.30;;;;;;4982124;28;114377;-78
2023/06/20 08:15:12;;;;;;;10.38;8.05;;;30.40;30.40;;;;;;4969189;28;114316;-77
2023/06/20 08:17:39;;;;;;;8.63;7.78;;;30.40;30.50;;;;;;4964703;28;115099;-78
2023/06/20 08:20:11;;;;;;;9.63;8.25;;;30.40;30.30;;;;;;4952783;28;117730;-78
2023/06/20 08:22:38;;;;;;;11.45;8.10;;;30.50;30.10;;;;;;4965740;28;114308;-76
2023/06/20 08:25:06;;;;;;;9.77;8.32;;;30.60;30.00;;;;;;4972078;28;114638;-77
2023/06/20 08:27:34;;;;;;;13.55;8.18;;;30.60;31.00;;;;;;4964760;28;114829;-78
2023/06/20 08:30:01;;;;;;;12.32;8.50;;;30.70;30.50;;;;;;4964039;28;114683;-76
2023/06/20 08:32:29;;;;;;;11.80;7.97;;;30.80;30.20;;;;;;4964665;28;114599;-78
2023/06/20 08:34:57;;;;;;;8.93;7.50;;;30.80;30.00;;;;;;4982135;28;114526;-78
2023/06/20 08:37:25;;;;;;;11.02;7.68;;;30.80;29.80;;;;;;4978797;28;115489;-78
2023/06/20 08:39:52;;;;;;;9.60;8.00;;;30.80;30.20;;;;;;4978103;28;115187;-78
2023/06/20 08:42:19;;;;;;;12.07;8.43;;;30.80;30.50;;;;;;4985244;28;114301;-78
2023/06/20 08:44:47;;;;;;;9.80;7.88;;;30.90;30.40;;;;;;4967878;28;114600;-78
2023/06/20 08:47:25;;;;;;;10.90;8.18;;;30.90;30.30;;;;;;4985038;28;115096;-78
2023/06/20 08:49:52;;;;;;;8.27;7.43;;;30.90;30.60;;;;;;4999531;28;115309;-78
2023/06/20 08:52:24;;;;;;;10.30;7.80;;;31.00;30.30;;;;;;4984603;28;114848;-77
2023/06/20 08:54:52;;;;;;;17.67;8.17;;;31.10;30.50;;;;;;5000341;28;114380;-78
2023/06/20 08:57:20;;;;;;;10.73;7.90;;;31.10;30.30;;;;;;4982707;28;115005;-78
2023/06/20 08:59:48;;;;;;;10.18;7.93;;;31.10;30.30;;;;;;4941604;28;118819;-78
2023/06/20 09:02:18;;;;;;;9.50;7.88;;;31.20;30.40;;;;;;4965866;28;114388;-78
2023/06/20 09:04:47;;;;;;;8.65;7.78;;;31.20;30.40;;;;;;4964319;28;114306;-78
2023/06/20 09:07:18;;;;;;;8.88;7.82;;;31.30;30.40;;;;;;4978689;28;115114;-77
2023/06/20 09:09:45;;;;;;;9.30;7.88;;;31.40;30.60;;;;;;4979712;28;115019;-78
2023/06/20 09:12:13;;;;;;;9.82;6.97;;;31.40;30.10;;;;;;4965380;28;114322;-78
2023/06/20 09:14:40;;;;;;;8.73;7.68;;;31.50;30.00;;;;;;4965629;28;114388;-78
2023/06/20 09:17:10;;;;;;;9.43;7.50;;;31.40;29.60;;;;;;4963076;28;114952;-77
2023/06/20 09:19:42;;;;;;;9.00;7.65;;;31.40;29.50;;;;;;4978283;28;114953;-78
2023/06/20 09:22:14;;;;;;;32.65;9.98;;;31.40;29.70;;;;;;4978353;28;114557;-78
2023/06/20 09:24:42;;;;;;;11.40;7.30;;;31.30;29.90;;;;;;4980620;28;114317;-78
2023/06/20 09:27:09;;;;;;;8.65;7.43;;;31.40;29.70;;;;;;4947129;28;117580;-78
2023/06/20 09:29:50;;;;;;;8.73;7.60;;;31.40;29.70;;;;;;4946461;28;116700;-78
2023/06/20 09:32:21;;;;;;;8.73;7.82;;;31.30;29.40;;;;;;4960723;28;114256;-78
2023/06/20 09:34:49;;;;;;;8.52;7.55;;;31.30;29.80;;;;;;4964257;28;116509;-78
2023/06/20 09:37:17;;;;;;;9.02;8.05;;;31.30;29.90;;;;;;4964823;28;115036;-79
2023/06/20 09:39:47;;;;;;;10.15;8.23;;;31.30;30.20;;;;;;4979427;28;116793;-78
2023/06/20 09:42:18;;;;;;;8.50;7.50;;;31.30;29.90;;;;;;4980051;28;114388;-80
2023/06/20 09:44:55;;;;;;;8.45;7.57;;;31.40;29.80;;;;;;4964564;28;114371;-77
2023/06/20 09:47:24;;;;;;;8.85;7.95;;;31.40;29.70;;;;;;4964568;28;115546;-79
2023/06/20 09:49:51;;;;;;;9.15;8.25;;;31.40;29.00;;;;;;4979476;28;114552;-78
2023/06/20 09:52:18;;;;;;;8.65;7.75;;;31.40;29.20;;;;;;4980540;28;114434;-77
2023/06/20 09:54:56;;;;;;;8.43;7.63;;;31.40;29.90;;;;;;4980193;28;114343;-77
2023/06/20 09:57:46;;;;;;;9.23;8.32;;;31.40;30.30;;;;;;4979009;28;114911;-77
2023/06/20 10:00:16;;;;;;;10.43;8.25;;;31.40;29.70;;;;;;4962754;28;117092;-77
2023/06/20 10:02:44;;;;;;;8.35;7.55;;;31.40;30.30;;;;;;4979814;28;114428;-78
2023/06/20 10:05:16;;;;;;;9.20;8.32;;;31.50;30.20;;;;;;4979791;28;114171;-78
2023/06/20 10:07:45;;;;;;;10.00;8.32;;;31.40;30.00;;;;;;4979156;28;114847;-78
2023/06/20 10:10:14;;;;;;;10.38;8.45;;;31.40;30.30;;;;;;4964046;28;115809;-78
2023/06/20 10:12:42;;;;;;;8.15;7.40;;;31.40;30.30;;;;;;4963805;28;114563;-78
2023/06/20 10:15:10;;;;;;;8.35;7.53;;;31.50;29.50;;;;;;4964067;28;114538;-78
2023/06/20 10:17:41;;;;;;;9.18;8.15;;;31.50;29.90;;;;;;4962439;28;115339;-78
2023/06/20 10:20:23;;;;;;;8.55;7.72;;;31.60;29.50;;;;;;4964054;28;114745;-79
2023/06/20 10:22:50;;;;;;;8.75;7.72;;;31.60;29.60;;;;;;4978688;28;114313;-78
2023/06/20 10:25:18;;;;;;;9.98;8.20;;;31.60;29.80;;;;;;4968248;28;114244;-78
2023/06/20 10:27:55;;;;;;;8.98;8.07;;;31.50;30.00;;;;;;4982501;28;116173;-78
2023/06/20 10:30:49;;;;;;;8.40;7.53;;;31.60;30.00;;;;;;4976029;28;115170;-78
2023/06/20 10:33:23;;;;;;;9.38;8.20;;;31.60;29.50;;;;;;4988204;28;114250;-78
2023/06/20 10:35:53;;;;;;;8.98;8.00;;;31.60;29.00;;;;;;4981298;28;114355;-80
2023/06/20 10:38:20;;;;;;;8.32;7.53;;;31.60;29.10;;;;;;4967987;28;114400;-78
2023/06/20 10:40:47;;;;;;;8.43;7.63;;;31.60;29.00;;;;;;4982745;28;114927;-78
2023/06/20 10:43:19;;;;;;;8.23;7.43;;;31.60;28.90;;;;;;4983396;28;114506;-78
2023/06/20 10:46:00;;;;;;;8.73;7.43;;;31.60;28.90;;;;;;4982051;28;114449;-78
2023/06/20 10:48:28;;;;;;;8.88;8.00;;;31.60;29.00;;;;;;4949305;28;118300;-78
2023/06/20 10:50:59;;;;;;;10.48;9.25;;;31.50;29.20;;;;;;4981982;28;115932;-78
2023/06/20 10:53:27;;;;;;;9.80;7.70;;;31.50;29.20;;;;;;4967720;28;114422;-78
2023/06/20 10:55:54;;;;;;;8.50;7.70;;;31.50;29.10;;;;;;4966745;28;114238;-78
2023/06/20 10:58:22;;;;;;;9.20;7.78;;;31.40;29.30;;;;;;4967043;28;118271;-78
2023/06/20 11:00:59;;;;;;;9.43;7.63;;;31.40;29.10;;;;;;4967303;28;116015;-78
2023/06/20 11:03:26;;;;;;;9.38;8.43;;;31.40;29.20;;;;;;4980956;28;114832;-78
2023/06/20 11:05:54;;;;;;;10.70;8.48;;;31.50;29.80;;;;;;4977324;28;115018;-79
2023/06/20 11:08:25;;;;;;;10.00;8.48;;;31.50;29.80;;;;;;4966934;28;115001;-78
2023/06/20 11:10:55;;;;;;;8.48;7.68;;;31.40;29.50;;;;;;4980120;28;115770;-77
2023/06/20 11:13:23;;;;;;;9.07;8.10;;;31.50;29.60;;;;;;4969026;28;114341;-77
2023/06/20 11:15:51;;;;;;;9.10;8.20;;;31.40;29.40;;;;;;4962992;28;118528;-78
2023/06/20 11:18:18;;;;;;;10.88;8.93;;;31.30;29.60;;;;;;4966164;28;115057;-78
2023/06/20 11:20:45;;;;;;;9.13;8.27;;;31.20;29.90;;;;;;4982202;28;114620;-78
2023/06/20 11:23:13;;;;;;;8.75;7.93;;;31.10;30.00;;;;;;4951402;28;114591;-78
2023/06/20 11:25:41;;;;;;;10.93;8.48;;;31.10;30.10;;;;;;4973559;28;116020;-78
2023/06/20 11:28:15;;;;;;;9.98;9.02;;;31.20;30.10;;;;;;4977945;28;114882;-78
2023/06/20 11:30:45;;;;;;;9.55;8.40;;;31.30;30.10;;;;;;4964235;28;116640;-78
2023/06/20 11:33:14;;;;;;;9.18;8.32;;;31.30;30.10;;;;;;4966830;28;114338;-78
2023/06/20 11:35:51;;;;;;;8.77;7.88;;;31.30;29.90;;;;;;4967141;28;114290;-78
2023/06/20 11:38:23;;;;;;;9.80;8.90;;;31.40;29.60;;;;;;4980558;28;117172;-78
2023/06/20 11:41:07;;;;;;;9.38;8.18;;;31.40;30.30;;;;;;4964547;28;114624;-78
2023/06/20 11:43:39;;;;;;;9.15;8.35;;;31.50;30.40;;;;;;4969224;28;114599;-78
2023/06/20 11:46:06;;;;;;;9.77;8.10;;;31.50;30.00;;;;;;4980481;28;114389;-77
2023/06/20 11:48:35;;;;;;;9.45;8.55;;;31.50;30.00;;;;;;4965433;28;115713;-78
2023/06/20 11:51:03;;;;;;;9.38;8.35;;;31.50;30.10;;;;;;4981101;28;114769;-78
2023/06/20 11:53:37;;;;;;;12.68;9.13;;;31.50;30.10;;;;;;4966039;28;114849;-78
2023/06/20 11:56:12;;;;;;;10.57;8.70;;;31.50;30.00;;;;;;4969232;28;116992;-78
2023/06/20 11:58:44;;;;;;;14.07;8.88;;;31.40;30.10;;;;;;4971604;28;114870;-78
2023/06/20 12:01:19;;;;;;;9.13;8.32;;;31.40;30.20;;;;;;4968035;28;115832;-79
2023/06/20 12:04:00;;;;;;;9.80;8.80;;;31.40;29.80;;;;;;4965781;28;117139;-79
2023/06/20 12:06:31;;;;;;;10.77;8.57;;;31.40;29.90;;;;;;4979597;28;114336;-78
2023/06/20 12:09:00;;;;;;;10.35;8.85;;;31.40;30.40;;;;;;4964751;28;115288;-79
2023/06/20 12:11:28;;;;;;;10.40;8.57;;;31.50;30.10;;;;;;4964846;28;115747;-78
2023/06/20 12:13:55;;;;;;;12.00;9.18;;;31.50;30.40;;;;;;4965564;28;114628;-79
2023/06/20 12:16:24;;;;;;;9.90;8.80;;;31.40;30.30;;;;;;4979328;28;114967;-79
2023/06/20 12:18:53;;;;;;;11.65;8.90;;;31.40;30.50;;;;;;4970502;28;115209;-78
2023/06/20 12:21:20;;;;;;;10.07;9.07;;;31.40;30.70;;;;;;4968577;28;114812;-78
2023/06/20 12:23:47;;;;;;;12.38;9.00;;;31.50;31.00;;;;;;4968017;28;116373;-78
2023/06/20 12:26:17;;;;;;;11.43;8.93;;;31.50;30.60;;;;;;4966060;28;114383;-78
2023/06/20 12:28:47;;;;;;;11.10;9.05;;;31.50;30.50;;;;;;4982692;28;115480;-78
2023/06/20 12:31:14;;;;;;;10.15;8.35;;;31.60;30.50;;;;;;4966104;28;114670;-77
2023/06/20 12:33:42;;;;;;;9.50;8.60;;;31.60;30.40;;;;;;4940505;28;114965;-77
2023/06/20 12:36:09;;;;;;;9.73;8.68;;;31.60;30.60;;;;;;4973169;28;114082;-77
2023/06/20 12:38:37;;;;;;;9.43;8.38;;;31.60;30.20;;;;;;4980379;28;115510;-77
2023/06/20 12:41:04;;;;;;;10.75;9.02;;;31.50;30.40;;;;;;4964852;28;115179;-77
2023/06/20 12:43:34;;;;;;;10.65;9.23;;;31.40;30.50;;;;;;4965148;28;115748;-77